sensor_id;sensor_type;location;lat;lon;timestamp;P1;durP1;ratioP1;P2;durP2;ratioP2
66118;SDS011;52912;48.564;9.302;2022-11-15T00:01:25;9.82;;;3.70;;
66118;SDS011;52912;48.564;9.302;2022-11-15T00:03:51;8.02;;;3.67;;
66118;SDS011;52912;48.564;9.302;2022-11-15T00:06:16;6.22;;;3.63;;
66118;SDS011;52912;48.564;9.302;2022-11-15T00:08:42;8.73;;;3.92;;
66118;SDS011;52912;48.564;9.302;2022-11-15T00:11:09;5.63;;;3.70;;
66118;SDS011;52912;48.564;9.302;2022-11-15T00:13:36;6.75;;;3.38;;
66118;SDS011;52912;48.564;9.302;2022-11-15T00:16:03;5.38;;;3.50;;
66118;SDS011;52912;48.564;9.302;2022-11-15T00:18:29;6.10;;;3.80;;
66118;SDS011;52912;48.564;9.302;2022-11-15T00:20:55;7.10;;;3.30;;
66118;SDS011;52912;48.564;9.302;2022-11-15T00:23:21;5.40;;;3.50;;
66118;SDS011;52912;48.564;9.302;2022-11-15T00:25:47;9.80;;;3.30;;
66118;SDS011;52912;48.564;9.302;2022-11-15T00:28:19;6.15;;;3.35;;
66118;SDS011;52912;48.564;9.302;2022-11-15T00:30:45;7.78;;;3.58;;
66118;SDS011;52912;48.564;9.302;2022-11-15T00:33:11;8.35;;;3.35;;
66118;SDS011;52912;48.564;9.302;2022-11-15T00:35:37;7.13;;;3.75;;
66118;SDS011;52912;48.564;9.302;2022-11-15T00:38:02;6.18;;;3.05;;
66118;SDS011;52912;48.564;9.302;2022-11-15T00:40:28;7.53;;;3.45;;
66118;SDS011;52912;48.564;9.302;2022-11-15T00:42:54;8.93;;;4.15;;
66118;SDS011;52912;48.564;9.302;2022-11-15T00:45:19;7.18;;;3.75;;
66118;SDS011;52912;48.564;9.302;2022-11-15T00:47:45;7.88;;;3.47;;
66118;SDS011;52912;48.564;9.302;2022-11-15T00:50:12;5.82;;;3.45;;
66118;SDS011;52912;48.564;9.302;2022-11-15T00:52:38;7.93;;;4.03;;
66118;SDS011;52912;48.564;9.302;2022-11-15T00:55:04;5.57;;;3.55;;
66118;SDS011;52912;48.564;9.302;2022-11-15T00:57:29;8.25;;;3.60;;
66118;SDS011;52912;48.564;9.302;2022-11-15T00:59:55;7.05;;;3.33;;
66118;SDS011;52912;48.564;9.302;2022-11-15T01:02:20;7.72;;;3.60;;
66118;SDS011;52912;48.564;9.302;2022-11-15T01:04:46;9.43;;;3.83;;
66118;SDS011;52912;48.564;9.302;2022-11-15T01:07:13;6.20;;;3.67;;
66118;SDS011;52912;48.564;9.302;2022-11-15T01:09:38;7.93;;;3.55;;
66118;SDS011;52912;48.564;9.302;2022-11-15T01:12:04;7.55;;;3.90;;
66118;SDS011;52912;48.564;9.302;2022-11-15T01:14:29;7.72;;;3.53;;
66118;SDS011;52912;48.564;9.302;2022-11-15T01:16:55;6.93;;;3.97;;
66118;SDS011;52912;48.564;9.302;2022-11-15T01:19:20;7.82;;;4.40;;
66118;SDS011;52912;48.564;9.302;2022-11-15T01:21:48;8.80;;;3.95;;
66118;SDS011;52912;48.564;9.302;2022-11-15T01:24:15;7.75;;;3.78;;
66118;SDS011;52912;48.564;9.302;2022-11-15T01:26:41;6.55;;;3.60;;
66118;SDS011;52912;48.564;9.302;2022-11-15T01:29:06;5.53;;;3.63;;
66118;SDS011;52912;48.564;9.302;2022-11-15T01:31:31;7.70;;;3.72;;
66118;SDS011;52912;48.564;9.302;2022-11-15T01:33:57;6.32;;;3.50;;
66118;SDS011;52912;48.564;9.302;2022-11-15T01:36:22;5.80;;;3.60;;
66118;SDS011;52912;48.564;9.302;2022-11-15T01:38:52;6.47;;;3.58;;
66118;SDS011;52912;48.564;9.302;2022-11-15T01:41:20;6.63;;;4.20;;
66118;SDS011;52912;48.564;9.302;2022-11-15T01:43:48;7.60;;;4.20;;
66118;SDS011;52912;48.564;9.302;2022-11-15T01:48:50;7.30;;;3.92;;
66118;SDS011;52912;48.564;9.302;2022-11-15T01:51:17;7.55;;;4.07;;
66118;SDS011;52912;48.564;9.302;2022-11-15T01:53:45;5.68;;;3.88;;
66118;SDS011;52912;48.564;9.302;2022-11-15T01:56:15;7.30;;;3.90;;
66118;SDS011;52912;48.564;9.302;2022-11-15T01:58:46;7.63;;;4.13;;
66118;SDS011;52912;48.564;9.302;2022-11-15T02:01:12;6.93;;;4.30;;
66118;SDS011;52912;48.564;9.302;2022-11-15T02:03:40;6.70;;;4.25;;
66118;SDS011;52912;48.564;9.302;2022-11-15T02:06:11;6.72;;;4.45;;
66118;SDS011;52912;48.564;9.302;2022-11-15T02:08:37;9.68;;;4.70;;
66118;SDS011;52912;48.564;9.302;2022-11-15T02:11:04;7.38;;;4.40;;
66118;SDS011;52912;48.564;9.302;2022-11-15T02:13:29;8.35;;;4.90;;
66118;SDS011;52912;48.564;9.302;2022-11-15T02:15:58;11.77;;;5.35;;
66118;SDS011;52912;48.564;9.302;2022-11-15T02:18:34;9.27;;;5.38;;
66118;SDS011;52912;48.564;9.302;2022-11-15T02:21:06;10.40;;;5.80;;
66118;SDS011;52912;48.564;9.302;2022-11-15T02:26:52;9.13;;;5.40;;
66118;SDS011;52912;48.564;9.302;2022-11-15T02:29:43;9.52;;;5.15;;
66118;SDS011;52912;48.564;9.302;2022-11-15T02:32:27;8.02;;;4.82;;
66118;SDS011;52912;48.564;9.302;2022-11-15T02:34:58;10.45;;;5.28;;
66118;SDS011;52912;48.564;9.302;2022-11-15T02:37:29;6.57;;;4.75;;
66118;SDS011;52912;48.564;9.302;2022-11-15T02:40:00;7.07;;;4.70;;
66118;SDS011;52912;48.564;9.302;2022-11-15T02:42:35;8.40;;;4.43;;
66118;SDS011;52912;48.564;9.302;2022-11-15T02:45:06;6.38;;;4.00;;
66118;SDS011;52912;48.564;9.302;2022-11-15T02:47:37;7.25;;;4.45;;
66118;SDS011;52912;48.564;9.302;2022-11-15T02:50:08;6.70;;;4.40;;
66118;SDS011;52912;48.564;9.302;2022-11-15T02:52:35;7.03;;;4.43;;
66118;SDS011;52912;48.564;9.302;2022-11-15T02:55:01;7.85;;;4.55;;
66118;SDS011;52912;48.564;9.302;2022-11-15T02:57:29;10.00;;;4.72;;
66118;SDS011;52912;48.564;9.302;2022-11-15T03:00:07;8.90;;;4.25;;
66118;SDS011;52912;48.564;9.302;2022-11-15T03:02:41;6.85;;;4.30;;
66118;SDS011;52912;48.564;9.302;2022-11-15T03:05:17;8.60;;;4.28;;
66118;SDS011;52912;48.564;9.302;2022-11-15T03:07:51;6.47;;;3.70;;
66118;SDS011;52912;48.564;9.302;2022-11-15T03:10:23;8.43;;;4.20;;
66118;SDS011;52912;48.564;9.302;2022-11-15T03:15:21;9.68;;;4.32;;
66118;SDS011;52912;48.564;9.302;2022-11-15T03:17:53;7.35;;;4.63;;
66118;SDS011;52912;48.564;9.302;2022-11-15T03:20:23;10.07;;;4.97;;
66118;SDS011;52912;48.564;9.302;2022-11-15T03:22:51;8.73;;;4.47;;
66118;SDS011;52912;48.564;9.302;2022-11-15T03:25:20;8.23;;;4.80;;
66118;SDS011;52912;48.564;9.302;2022-11-15T03:27:50;7.55;;;4.03;;
66118;SDS011;52912;48.564;9.302;2022-11-15T03:30:18;8.57;;;4.38;;
66118;SDS011;52912;48.564;9.302;2022-11-15T03:32:44;9.23;;;4.65;;
66118;SDS011;52912;48.564;9.302;2022-11-15T03:35:17;7.15;;;4.40;;
66118;SDS011;52912;48.564;9.302;2022-11-15T03:37:46;7.28;;;3.88;;
66118;SDS011;52912;48.564;9.302;2022-11-15T03:40:16;7.25;;;3.58;;
66118;SDS011;52912;48.564;9.302;2022-11-15T03:42:43;7.30;;;3.80;;
66118;SDS011;52912;48.564;9.302;2022-11-15T03:45:14;8.60;;;4.38;;
66118;SDS011;52912;48.564;9.302;2022-11-15T03:47:43;6.72;;;4.45;;
66118;SDS011;52912;48.564;9.302;2022-11-15T03:50:14;7.22;;;4.65;;
66118;SDS011;52912;48.564;9.302;2022-11-15T03:52:44;7.82;;;4.82;;
66118;SDS011;52912;48.564;9.302;2022-11-15T03:55:11;7.95;;;4.20;;
66118;SDS011;52912;48.564;9.302;2022-11-15T03:57:40;8.35;;;4.72;;
66118;SDS011;52912;48.564;9.302;2022-11-15T04:00:06;6.38;;;4.32;;
66118;SDS011;52912;48.564;9.302;2022-11-15T04:02:32;7.72;;;4.32;;
66118;SDS011;52912;48.564;9.302;2022-11-15T04:04:57;11.18;;;5.38;;
66118;SDS011;52912;48.564;9.302;2022-11-15T04:07:24;10.40;;;6.20;;
66118;SDS011;52912;48.564;9.302;2022-11-15T04:09:50;17.38;;;6.30;;
66118;SDS011;52912;48.564;9.302;2022-11-15T04:12:15;10.07;;;5.85;;
66118;SDS011;52912;48.564;9.302;2022-11-15T04:14:40;11.43;;;6.60;;
66118;SDS011;52912;48.564;9.302;2022-11-15T04:17:06;11.38;;;6.30;;
66118;SDS011;52912;48.564;9.302;2022-11-15T04:19:31;9.70;;;6.15;;
66118;SDS011;52912;48.564;9.302;2022-11-15T04:21:57;11.43;;;7.32;;
66118;SDS011;52912;48.564;9.302;2022-11-15T04:24:24;12.02;;;6.90;;
66118;SDS011;52912;48.564;9.302;2022-11-15T04:26:49;11.60;;;6.07;;
66118;SDS011;52912;48.564;9.302;2022-11-15T04:29:14;9.77;;;6.85;;
66118;SDS011;52912;48.564;9.302;2022-11-15T04:31:40;9.77;;;6.53;;
66118;SDS011;52912;48.564;9.302;2022-11-15T04:34:05;11.25;;;6.72;;
66118;SDS011;52912;48.564;9.302;2022-11-15T04:36:31;11.43;;;6.10;;
66118;SDS011;52912;48.564;9.302;2022-11-15T04:38:56;11.10;;;6.47;;
66118;SDS011;52912;48.564;9.302;2022-11-15T04:41:23;8.85;;;5.85;;
66118;SDS011;52912;48.564;9.302;2022-11-15T04:43:49;12.40;;;6.30;;
66118;SDS011;52912;48.564;9.302;2022-11-15T04:46:14;12.57;;;6.45;;
66118;SDS011;52912;48.564;9.302;2022-11-15T04:48:39;9.77;;;5.95;;
66118;SDS011;52912;48.564;9.302;2022-11-15T04:51:05;10.93;;;6.30;;
66118;SDS011;52912;48.564;9.302;2022-11-15T04:53:30;10.60;;;6.15;;
66118;SDS011;52912;48.564;9.302;2022-11-15T04:55:56;10.98;;;5.75;;
66118;SDS011;52912;48.564;9.302;2022-11-15T04:58:23;10.48;;;5.78;;
66118;SDS011;52912;48.564;9.302;2022-11-15T05:00:48;8.90;;;5.80;;
66118;SDS011;52912;48.564;9.302;2022-11-15T05:03:14;12.25;;;6.30;;
66118;SDS011;52912;48.564;9.302;2022-11-15T05:05:39;9.43;;;5.50;;
66118;SDS011;52912;48.564;9.302;2022-11-15T05:08:05;7.22;;;5.22;;
66118;SDS011;52912;48.564;9.302;2022-11-15T05:10:30;7.15;;;4.97;;
66118;SDS011;52912;48.564;9.302;2022-11-15T05:12:56;16.73;;;5.65;;
66118;SDS011;52912;48.564;9.302;2022-11-15T05:15:23;7.72;;;5.40;;
66118;SDS011;52912;48.564;9.302;2022-11-15T05:17:48;12.25;;;5.82;;
66118;SDS011;52912;48.564;9.302;2022-11-15T05:20:14;9.88;;;5.65;;
66118;SDS011;52912;48.564;9.302;2022-11-15T05:22:39;11.48;;;5.68;;
66118;SDS011;52912;48.564;9.302;2022-11-15T05:25:05;9.32;;;6.38;;
66118;SDS011;52912;48.564;9.302;2022-11-15T05:27:32;9.98;;;5.80;;
66118;SDS011;52912;48.564;9.302;2022-11-15T05:29:58;11.00;;;5.63;;
66118;SDS011;52912;48.564;9.302;2022-11-15T05:32:24;7.75;;;5.47;;
66118;SDS011;52912;48.564;9.302;2022-11-15T05:34:50;9.95;;;5.32;;
66118;SDS011;52912;48.564;9.302;2022-11-15T05:37:16;11.50;;;5.47;;
66118;SDS011;52912;48.564;9.302;2022-11-15T05:39:42;11.05;;;5.65;;
66118;SDS011;52912;48.564;9.302;2022-11-15T05:42:09;9.73;;;5.50;;
66118;SDS011;52912;48.564;9.302;2022-11-15T05:44:36;10.20;;;5.47;;
66118;SDS011;52912;48.564;9.302;2022-11-15T05:47:03;9.43;;;5.47;;
66118;SDS011;52912;48.564;9.302;2022-11-15T05:49:35;8.63;;;5.63;;
66118;SDS011;52912;48.564;9.302;2022-11-15T05:52:02;11.38;;;6.68;;
66118;SDS011;52912;48.564;9.302;2022-11-15T05:54:31;10.98;;;6.05;;
66118;SDS011;52912;48.564;9.302;2022-11-15T05:56:57;9.27;;;5.90;;
66118;SDS011;52912;48.564;9.302;2022-11-15T05:59:23;10.90;;;5.82;;
66118;SDS011;52912;48.564;9.302;2022-11-15T06:01:49;12.07;;;6.30;;
66118;SDS011;52912;48.564;9.302;2022-11-15T06:04:14;9.38;;;5.82;;
66118;SDS011;52912;48.564;9.302;2022-11-15T06:06:41;10.57;;;5.55;;
66118;SDS011;52912;48.564;9.302;2022-11-15T06:09:06;9.88;;;5.45;;
66118;SDS011;52912;48.564;9.302;2022-11-15T06:11:32;10.23;;;5.97;;
66118;SDS011;52912;48.564;9.302;2022-11-15T06:13:57;11.27;;;6.22;;
66118;SDS011;52912;48.564;9.302;2022-11-15T06:16:23;10.95;;;6.68;;
66118;SDS011;52912;48.564;9.302;2022-11-15T06:18:48;8.70;;;5.75;;
66118;SDS011;52912;48.564;9.302;2022-11-15T06:21:14;11.57;;;5.45;;
66118;SDS011;52912;48.564;9.302;2022-11-15T06:23:41;10.32;;;5.68;;
66118;SDS011;52912;48.564;9.302;2022-11-15T06:26:06;9.13;;;5.18;;
66118;SDS011;52912;48.564;9.302;2022-11-15T06:28:32;11.85;;;5.90;;
66118;SDS011;52912;48.564;9.302;2022-11-15T06:31:01;10.07;;;6.65;;
66118;SDS011;52912;48.564;9.302;2022-11-15T06:33:28;11.75;;;6.30;;
66118;SDS011;52912;48.564;9.302;2022-11-15T06:35:53;10.90;;;6.28;;
66118;SDS011;52912;48.564;9.302;2022-11-15T06:38:22;9.48;;;6.07;;
66118;SDS011;52912;48.564;9.302;2022-11-15T06:40:48;10.60;;;6.97;;
66118;SDS011;52912;48.564;9.302;2022-11-15T06:43:14;19.90;;;9.32;;
66118;SDS011;52912;48.564;9.302;2022-11-15T06:45:39;9.10;;;6.20;;
66118;SDS011;52912;48.564;9.302;2022-11-15T06:48:05;11.50;;;5.68;;
66118;SDS011;52912;48.564;9.302;2022-11-15T06:50:31;10.63;;;6.50;;
66118;SDS011;52912;48.564;9.302;2022-11-15T06:53:00;11.05;;;6.20;;
66118;SDS011;52912;48.564;9.302;2022-11-15T06:55:26;14.88;;;8.60;;
66118;SDS011;52912;48.564;9.302;2022-11-15T06:57:53;17.08;;;10.10;;
66118;SDS011;52912;48.564;9.302;2022-11-15T07:00:19;15.82;;;10.20;;
66118;SDS011;52912;48.564;9.302;2022-11-15T07:02:45;11.55;;;6.75;;
66118;SDS011;52912;48.564;9.302;2022-11-15T07:05:11;10.77;;;6.80;;
66118;SDS011;52912;48.564;9.302;2022-11-15T07:07:37;9.65;;;5.75;;
66118;SDS011;52912;48.564;9.302;2022-11-15T07:10:03;9.13;;;5.22;;
66118;SDS011;52912;48.564;9.302;2022-11-15T07:12:29;8.63;;;6.03;;
66118;SDS011;52912;48.564;9.302;2022-11-15T07:14:56;10.13;;;5.95;;
66118;SDS011;52912;48.564;9.302;2022-11-15T07:17:21;9.52;;;6.22;;
66118;SDS011;52912;48.564;9.302;2022-11-15T07:19:47;9.63;;;6.00;;
66118;SDS011;52912;48.564;9.302;2022-11-15T07:22:12;10.82;;;5.93;;
66118;SDS011;52912;48.564;9.302;2022-11-15T07:24:38;12.38;;;5.93;;
66118;SDS011;52912;48.564;9.302;2022-11-15T07:27:03;11.10;;;6.55;;
66118;SDS011;52912;48.564;9.302;2022-11-15T07:29:28;9.20;;;6.13;;
66118;SDS011;52912;48.564;9.302;2022-11-15T07:31:55;9.27;;;6.28;;
66118;SDS011;52912;48.564;9.302;2022-11-15T07:34:21;10.80;;;6.35;;
66118;SDS011;52912;48.564;9.302;2022-11-15T07:36:46;7.75;;;5.53;;
66118;SDS011;52912;48.564;9.302;2022-11-15T07:39:12;10.63;;;6.45;;
66118;SDS011;52912;48.564;9.302;2022-11-15T07:41:37;10.82;;;5.60;;
66118;SDS011;52912;48.564;9.302;2022-11-15T07:44:03;8.45;;;5.78;;
66118;SDS011;52912;48.564;9.302;2022-11-15T07:46:28;11.07;;;5.78;;
66118;SDS011;52912;48.564;9.302;2022-11-15T07:48:55;84.80;;;11.98;;
66118;SDS011;52912;48.564;9.302;2022-11-15T07:51:21;58.70;;;11.25;;
66118;SDS011;52912;48.564;9.302;2022-11-15T07:53:47;23.77;;;7.95;;
66118;SDS011;52912;48.564;9.302;2022-11-15T07:56:12;19.50;;;7.97;;
66118;SDS011;52912;48.564;9.302;2022-11-15T07:58:38;17.30;;;8.02;;
66118;SDS011;52912;48.564;9.302;2022-11-15T08:01:04;23.10;;;9.25;;
66118;SDS011;52912;48.564;9.302;2022-11-15T08:03:30;14.23;;;9.40;;
66118;SDS011;52912;48.564;9.302;2022-11-15T08:05:58;9.85;;;6.78;;
66118;SDS011;52912;48.564;9.302;2022-11-15T08:08:23;8.68;;;4.47;;
66118;SDS011;52912;48.564;9.302;2022-11-15T08:10:48;7.30;;;4.53;;
66118;SDS011;52912;48.564;9.302;2022-11-15T08:13:14;8.45;;;5.05;;
66118;SDS011;52912;48.564;9.302;2022-11-15T08:15:39;6.65;;;4.32;;
66118;SDS011;52912;48.564;9.302;2022-11-15T08:18:05;6.70;;;4.22;;
66118;SDS011;52912;48.564;9.302;2022-11-15T08:20:33;9.03;;;4.77;;
66118;SDS011;52912;48.564;9.302;2022-11-15T08:23:01;8.02;;;5.03;;
66118;SDS011;52912;48.564;9.302;2022-11-15T08:25:28;7.75;;;4.82;;
66118;SDS011;52912;48.564;9.302;2022-11-15T08:27:56;9.77;;;5.05;;
66118;SDS011;52912;48.564;9.302;2022-11-15T08:30:22;14.25;;;7.40;;
66118;SDS011;52912;48.564;9.302;2022-11-15T08:32:48;13.40;;;7.18;;
66118;SDS011;52912;48.564;9.302;2022-11-15T08:35:14;14.90;;;7.15;;
66118;SDS011;52912;48.564;9.302;2022-11-15T08:37:40;11.57;;;6.18;;
66118;SDS011;52912;48.564;9.302;2022-11-15T08:40:07;8.75;;;5.60;;
66118;SDS011;52912;48.564;9.302;2022-11-15T08:42:33;10.00;;;5.35;;
66118;SDS011;52912;48.564;9.302;2022-11-15T08:44:59;10.27;;;5.75;;
66118;SDS011;52912;48.564;9.302;2022-11-15T08:47:24;9.32;;;5.07;;
66118;SDS011;52912;48.564;9.302;2022-11-15T08:49:50;12.25;;;5.70;;
66118;SDS011;52912;48.564;9.302;2022-11-15T08:52:15;17.73;;;7.88;;
66118;SDS011;52912;48.564;9.302;2022-11-15T08:54:41;10.73;;;7.00;;
66118;SDS011;52912;48.564;9.302;2022-11-15T08:57:08;9.43;;;6.75;;
66118;SDS011;52912;48.564;9.302;2022-11-15T08:59:33;9.48;;;5.50;;
66118;SDS011;52912;48.564;9.302;2022-11-15T09:01:59;13.82;;;5.85;;
66118;SDS011;52912;48.564;9.302;2022-11-15T09:04:24;10.45;;;6.05;;
66118;SDS011;52912;48.564;9.302;2022-11-15T09:06:49;11.48;;;6.00;;
66118;SDS011;52912;48.564;9.302;2022-11-15T09:09:15;11.57;;;7.15;;
66118;SDS011;52912;48.564;9.302;2022-11-15T09:11:40;9.52;;;6.53;;
66118;SDS011;52912;48.564;9.302;2022-11-15T09:14:07;12.63;;;6.55;;
66118;SDS011;52912;48.564;9.302;2022-11-15T09:16:35;8.20;;;5.78;;
66118;SDS011;52912;48.564;9.302;2022-11-15T09:19:00;10.15;;;5.97;;
66118;SDS011;52912;48.564;9.302;2022-11-15T09:21:26;9.18;;;5.90;;
66118;SDS011;52912;48.564;9.302;2022-11-15T09:23:51;10.15;;;6.32;;
66118;SDS011;52912;48.564;9.302;2022-11-15T09:26:17;9.35;;;6.30;;
66118;SDS011;52912;48.564;9.302;2022-11-15T09:28:43;10.52;;;6.82;;
66118;SDS011;52912;48.564;9.302;2022-11-15T09:31:10;9.85;;;6.30;;
66118;SDS011;52912;48.564;9.302;2022-11-15T09:33:35;11.35;;;6.20;;
66118;SDS011;52912;48.564;9.302;2022-11-15T09:36:02;13.05;;;6.32;;
66118;SDS011;52912;48.564;9.302;2022-11-15T09:38:29;10.75;;;5.72;;
66118;SDS011;52912;48.564;9.302;2022-11-15T09:40:58;9.18;;;5.72;;
66118;SDS011;52912;48.564;9.302;2022-11-15T09:43:39;8.63;;;5.43;;
66118;SDS011;52912;48.564;9.302;2022-11-15T09:46:15;9.95;;;5.30;;
66118;SDS011;52912;48.564;9.302;2022-11-15T09:48:53;12.45;;;5.63;;
66118;SDS011;52912;48.564;9.302;2022-11-15T09:51:27;10.35;;;5.75;;
66118;SDS011;52912;48.564;9.302;2022-11-15T09:53:56;12.65;;;5.22;;
66118;SDS011;52912;48.564;9.302;2022-11-15T09:56:26;8.75;;;5.60;;
66118;SDS011;52912;48.564;9.302;2022-11-15T09:58:56;7.68;;;4.68;;
66118;SDS011;52912;48.564;9.302;2022-11-15T10:01:35;7.85;;;4.50;;
66118;SDS011;52912;48.564;9.302;2022-11-15T10:04:06;10.27;;;4.32;;
66118;SDS011;52912;48.564;9.302;2022-11-15T10:06:32;7.38;;;4.45;;
66118;SDS011;52912;48.564;9.302;2022-11-15T10:09:03;8.13;;;4.50;;
66118;SDS011;52912;48.564;9.302;2022-11-15T10:11:35;7.78;;;4.80;;
66118;SDS011;52912;48.564;9.302;2022-11-15T10:14:02;13.32;;;4.45;;
66118;SDS011;52912;48.564;9.302;2022-11-15T10:19:33;7.47;;;4.10;;
66118;SDS011;52912;48.564;9.302;2022-11-15T10:22:08;9.57;;;4.88;;
66118;SDS011;52912;48.564;9.302;2022-11-15T10:24:43;8.20;;;4.35;;
66118;SDS011;52912;48.564;9.302;2022-11-15T10:27:10;7.35;;;4.03;;
66118;SDS011;52912;48.564;9.302;2022-11-15T10:29:43;9.38;;;4.10;;
66118;SDS011;52912;48.564;9.302;2022-11-15T10:32:12;6.90;;;3.80;;
66118;SDS011;52912;48.564;9.302;2022-11-15T10:34:39;6.30;;;3.90;;
66118;SDS011;52912;48.564;9.302;2022-11-15T10:37:05;9.98;;;4.45;;
66118;SDS011;52912;48.564;9.302;2022-11-15T10:39:31;7.82;;;4.00;;
66118;SDS011;52912;48.564;9.302;2022-11-15T10:41:56;9.68;;;4.32;;
66118;SDS011;52912;48.564;9.302;2022-11-15T10:44:23;10.32;;;4.78;;
66118;SDS011;52912;48.564;9.302;2022-11-15T10:47:16;11.18;;;4.47;;
66118;SDS011;52912;48.564;9.302;2022-11-15T10:49:52;9.25;;;4.20;;
66118;SDS011;52912;48.564;9.302;2022-11-15T10:52:22;6.55;;;4.50;;
66118;SDS011;52912;48.564;9.302;2022-11-15T10:54:49;9.25;;;5.70;;
66118;SDS011;52912;48.564;9.302;2022-11-15T10:57:17;17.08;;;5.22;;
66118;SDS011;52912;48.564;9.302;2022-11-15T10:59:44;8.68;;;4.75;;
66118;SDS011;52912;48.564;9.302;2022-11-15T11:02:31;8.65;;;5.53;;
66118;SDS011;52912;48.564;9.302;2022-11-15T11:04:59;12.63;;;6.18;;
66118;SDS011;52912;48.564;9.302;2022-11-15T11:07:26;14.70;;;5.95;;
66118;SDS011;52912;48.564;9.302;2022-11-15T11:09:56;9.90;;;6.15;;
66118;SDS011;52912;48.564;9.302;2022-11-15T11:12:26;14.88;;;6.78;;
66118;SDS011;52912;48.564;9.302;2022-11-15T11:14:53;14.15;;;7.28;;
66118;SDS011;52912;48.564;9.302;2022-11-15T11:17:21;12.07;;;6.05;;
66118;SDS011;52912;48.564;9.302;2022-11-15T11:19:56;11.45;;;6.90;;
66118;SDS011;52912;48.564;9.302;2022-11-15T11:22:29;10.30;;;6.18;;
66118;SDS011;52912;48.564;9.302;2022-11-15T11:25:04;14.02;;;7.00;;
66118;SDS011;52912;48.564;9.302;2022-11-15T11:27:36;14.77;;;7.18;;
66118;SDS011;52912;48.564;9.302;2022-11-15T11:30:10;12.77;;;7.20;;
66118;SDS011;52912;48.564;9.302;2022-11-15T11:40:27;13.05;;;6.57;;
66118;SDS011;52912;48.564;9.302;2022-11-15T11:42:56;16.40;;;6.77;;
66118;SDS011;52912;48.564;9.302;2022-11-15T13:06:36;9.25;;;4.50;;
66118;SDS011;52912;48.564;9.302;2022-11-15T13:09:49;10.73;;;4.72;;
66118;SDS011;52912;48.564;9.302;2022-11-15T13:12:25;8.93;;;4.43;;
66118;SDS011;52912;48.564;9.302;2022-11-15T13:15:31;7.50;;;4.93;;
66118;SDS011;52912;48.564;9.302;2022-11-15T13:17:58;26.83;;;6.60;;
66118;SDS011;52912;48.564;9.302;2022-11-15T13:20:45;13.23;;;5.45;;
66118;SDS011;52912;48.564;9.302;2022-11-15T13:23:11;9.07;;;5.25;;
66118;SDS011;52912;48.564;9.302;2022-11-15T13:25:54;10.95;;;5.30;;
66118;SDS011;52912;48.564;9.302;2022-11-15T13:28:35;10.10;;;5.50;;
66118;SDS011;52912;48.564;9.302;2022-11-15T13:31:03;11.18;;;5.47;;
66118;SDS011;52912;48.564;9.302;2022-11-15T13:33:43;11.90;;;5.47;;
66118;SDS011;52912;48.564;9.302;2022-11-15T13:36:13;12.15;;;5.75;;
66118;SDS011;52912;48.564;9.302;2022-11-15T13:38:41;11.15;;;5.78;;
66118;SDS011;52912;48.564;9.302;2022-11-15T13:41:13;16.88;;;7.25;;
66118;SDS011;52912;48.564;9.302;2022-11-15T13:43:43;11.63;;;5.75;;
66118;SDS011;52912;48.564;9.302;2022-11-15T13:46:10;15.25;;;5.03;;
66118;SDS011;52912;48.564;9.302;2022-11-15T13:48:37;11.50;;;5.65;;
66118;SDS011;52912;48.564;9.302;2022-11-15T15:42:24;10.40;;;5.32;;
66118;SDS011;52912;48.564;9.302;2022-11-15T15:44:52;13.93;;;5.90;;
66118;SDS011;52912;48.564;9.302;2022-11-15T15:47:18;8.73;;;5.35;;
66118;SDS011;52912;48.564;9.302;2022-11-15T15:49:45;12.68;;;5.00;;
66118;SDS011;52912;48.564;9.302;2022-11-15T15:52:11;13.43;;;7.35;;
66118;SDS011;52912;48.564;9.302;2022-11-15T15:54:36;11.32;;;4.55;;
66118;SDS011;52912;48.564;9.302;2022-11-15T15:57:03;6.45;;;3.25;;
66118;SDS011;52912;48.564;9.302;2022-11-15T15:59:29;7.13;;;3.40;;
66118;SDS011;52912;48.564;9.302;2022-11-15T16:01:54;10.25;;;5.30;;
66118;SDS011;52912;48.564;9.302;2022-11-15T16:04:20;4.93;;;2.67;;
66118;SDS011;52912;48.564;9.302;2022-11-15T16:06:45;8.30;;;4.20;;
66118;SDS011;52912;48.564;9.302;2022-11-15T16:09:12;5.43;;;3.10;;
66118;SDS011;52912;48.564;9.302;2022-11-15T16:11:39;3.53;;;2.30;;
66118;SDS011;52912;48.564;9.302;2022-11-15T16:14:06;4.40;;;2.47;;
66118;SDS011;52912;48.564;9.302;2022-11-15T16:16:31;5.47;;;3.78;;
66118;SDS011;52912;48.564;9.302;2022-11-15T16:18:57;6.30;;;2.90;;
66118;SDS011;52912;48.564;9.302;2022-11-15T16:21:22;7.07;;;2.40;;
66118;SDS011;52912;48.564;9.302;2022-11-15T16:23:48;3.67;;;1.98;;
66118;SDS011;52912;48.564;9.302;2022-11-15T16:26:14;5.43;;;2.45;;
66118;SDS011;52912;48.564;9.302;2022-11-15T16:28:45;4.95;;;3.20;;
66118;SDS011;52912;48.564;9.302;2022-11-15T16:31:12;4.95;;;2.40;;
66118;SDS011;52912;48.564;9.302;2022-11-15T16:33:38;3.92;;;2.53;;
66118;SDS011;52912;48.564;9.302;2022-11-15T16:36:04;7.10;;;2.83;;
66118;SDS011;52912;48.564;9.302;2022-11-15T16:38:39;4.05;;;2.38;;
66118;SDS011;52912;48.564;9.302;2022-11-15T16:41:04;7.70;;;3.20;;
66118;SDS011;52912;48.564;9.302;2022-11-15T16:43:30;4.93;;;3.30;;
66118;SDS011;52912;48.564;9.302;2022-11-15T16:45:56;4.00;;;2.60;;
66118;SDS011;52912;48.564;9.302;2022-11-15T16:48:23;6.00;;;2.92;;
66118;SDS011;52912;48.564;9.302;2022-11-15T16:50:49;7.33;;;3.20;;
66118;SDS011;52912;48.564;9.302;2022-11-15T16:53:15;8.48;;;3.50;;
66118;SDS011;52912;48.564;9.302;2022-11-15T16:55:41;6.53;;;3.45;;
66118;SDS011;52912;48.564;9.302;2022-11-15T16:58:07;6.32;;;3.58;;
66118;SDS011;52912;48.564;9.302;2022-11-15T17:00:33;4.22;;;2.67;;
66118;SDS011;52912;48.564;9.302;2022-11-15T17:02:59;7.55;;;3.80;;
66118;SDS011;52912;48.564;9.302;2022-11-15T17:05:25;5.72;;;3.50;;
66118;SDS011;52912;48.564;9.302;2022-11-15T17:07:51;7.13;;;3.45;;
66118;SDS011;52912;48.564;9.302;2022-11-15T17:10:16;6.72;;;3.63;;
66118;SDS011;52912;48.564;9.302;2022-11-15T17:12:42;7.78;;;4.13;;
66118;SDS011;52912;48.564;9.302;2022-11-15T17:15:08;5.75;;;3.65;;
66118;SDS011;52912;48.564;9.302;2022-11-15T17:17:36;6.47;;;3.80;;
66118;SDS011;52912;48.564;9.302;2022-11-15T17:20:01;6.30;;;4.20;;
66118;SDS011;52912;48.564;9.302;2022-11-15T17:22:28;6.75;;;4.22;;
66118;SDS011;52912;48.564;9.302;2022-11-15T17:24:54;7.07;;;4.22;;
66118;SDS011;52912;48.564;9.302;2022-11-15T17:27:19;7.22;;;4.13;;
66118;SDS011;52912;48.564;9.302;2022-11-15T17:29:45;8.27;;;3.65;;
66118;SDS011;52912;48.564;9.302;2022-11-15T17:32:13;7.38;;;4.20;;
66118;SDS011;52912;48.564;9.302;2022-11-15T17:34:38;6.95;;;3.95;;
66118;SDS011;52912;48.564;9.302;2022-11-15T17:37:04;5.35;;;3.13;;
66118;SDS011;52912;48.564;9.302;2022-11-15T17:39:31;7.10;;;3.45;;
66118;SDS011;52912;48.564;9.302;2022-11-15T17:41:56;6.88;;;3.47;;
66118;SDS011;52912;48.564;9.302;2022-11-15T17:44:21;4.93;;;3.53;;
66118;SDS011;52912;48.564;9.302;2022-11-15T17:46:47;7.35;;;3.50;;
66118;SDS011;52912;48.564;9.302;2022-11-15T17:49:12;4.93;;;3.42;;
66118;SDS011;52912;48.564;9.302;2022-11-15T17:51:38;5.78;;;3.38;;
66118;SDS011;52912;48.564;9.302;2022-11-15T17:54:03;5.07;;;3.20;;
66118;SDS011;52912;48.564;9.302;2022-11-15T17:56:30;7.50;;;3.53;;
66118;SDS011;52912;48.564;9.302;2022-11-15T17:58:56;5.78;;;3.13;;
66118;SDS011;52912;48.564;9.302;2022-11-15T18:01:24;4.90;;;3.40;;
66118;SDS011;52912;48.564;9.302;2022-11-15T18:03:51;9.65;;;3.70;;
66118;SDS011;52912;48.564;9.302;2022-11-15T18:06:17;6.18;;;3.00;;
66118;SDS011;52912;48.564;9.302;2022-11-15T18:08:44;6.20;;;3.30;;
66118;SDS011;52912;48.564;9.302;2022-11-15T18:11:12;4.88;;;2.83;;
66118;SDS011;52912;48.564;9.302;2022-11-15T18:13:41;6.23;;;3.60;;
66118;SDS011;52912;48.564;9.302;2022-11-15T18:16:09;5.20;;;3.03;;
66118;SDS011;52912;48.564;9.302;2022-11-15T18:18:36;4.75;;;3.03;;